createdAt,value
2019-05-26T00:00:18.070Z,21.93
2019-05-26T00:02:46.412Z,20.35
2019-05-26T00:05:14.810Z,22.52
2019-05-26T00:07:43.342Z,24.20
2019-05-26T00:10:12.642Z,23.77
2019-05-26T00:12:41.025Z,25.68
2019-05-26T00:15:09.559Z,24.87
2019-05-26T00:17:38.021Z,25.77
2019-05-26T00:20:07.481Z,24.77
2019-05-26T00:22:35.901Z,24.75
2019-05-26T00:25:06.098Z,25.95
2019-05-26T00:27:34.488Z,26.05
2019-05-26T00:30:03.150Z,22.77
2019-05-26T00:32:31.602Z,26.17
2019-05-26T00:34:59.984Z,26.42
2019-05-26T00:37:28.377Z,22.67
2019-05-26T00:39:56.787Z,24.92
2019-05-26T00:42:26.243Z,25.45
2019-05-26T00:44:54.616Z,24.30
2019-05-26T00:47:23.089Z,25.75
2019-05-26T00:49:51.542Z,23.70
2019-05-26T00:52:19.919Z,24.85
2019-05-26T00:54:48.374Z,25.15
2019-05-26T00:57:16.744Z,22.82
2019-05-26T00:59:45.154Z,25.37
2019-05-26T01:02:13.755Z,25.37
2019-05-26T01:04:42.169Z,23.87
2019-05-26T01:07:10.661Z,24.52
2019-05-26T01:09:39.118Z,23.15
2019-05-26T01:12:07.637Z,23.50
2019-05-26T01:14:36.176Z,23.38
2019-05-26T01:17:04.608Z,24.75
2019-05-26T01:19:33.041Z,21.82
2019-05-26T01:22:01.441Z,23.32
2019-05-26T01:24:29.930Z,23.50
2019-05-26T01:26:58.342Z,22.85
2019-05-26T01:29:26.729Z,23.70
2019-05-26T01:31:55.081Z,20.97
2019-05-26T01:34:23.530Z,24.60
2019-05-26T01:36:51.826Z,23.27
2019-05-26T01:39:20.224Z,23.55
2019-05-26T01:41:48.671Z,21.25
2019-05-26T01:44:17.075Z,21.37
2019-05-26T01:46:45.481Z,22.62
2019-05-26T01:49:13.898Z,19.85
2019-05-26T01:51:42.309Z,18.12
2019-05-26T01:54:10.706Z,18.75
2019-05-26T01:56:39.194Z,19.35
2019-05-26T01:59:07.621Z,19.37
2019-05-26T02:01:36.034Z,19.12
2019-05-26T02:04:04.481Z,19.00
2019-05-26T02:06:32.926Z,19.98
2019-05-26T02:09:03.011Z,18.62
2019-05-26T02:11:31.406Z,18.10
2019-05-26T02:13:59.803Z,19.80
2019-05-26T02:16:28.350Z,17.07
2019-05-26T02:18:56.716Z,21.48
2019-05-26T02:21:25.149Z,19.10
2019-05-26T02:23:53.604Z,16.45
2019-05-26T02:26:22.018Z,15.98
2019-05-26T02:28:50.430Z,17.07
2019-05-26T02:31:18.876Z,14.35
2019-05-26T02:33:47.333Z,15.00
2019-05-26T02:36:15.738Z,13.70
2019-05-26T02:39:00.969Z,12.33
2019-05-26T02:41:14.285Z,9.98
2019-05-26T02:43:42.730Z,11.85
2019-05-26T02:46:11.128Z,11.28
2019-05-26T02:48:39.633Z,12.23
2019-05-26T02:51:08.053Z,15.80
2019-05-26T02:53:36.503Z,10.82
2019-05-26T02:56:04.892Z,12.10
2019-05-26T02:58:33.234Z,13.32
2019-05-26T03:01:01.676Z,10.58
2019-05-26T03:03:30.031Z,9.30
2019-05-26T03:05:58.389Z,13.83
2019-05-26T03:08:26.813Z,9.58
2019-05-26T03:10:55.147Z,12.65
2019-05-26T03:13:23.534Z,12.10
2019-05-26T03:15:52.074Z,9.03
2019-05-26T03:18:20.476Z,10.30
2019-05-26T03:20:49.051Z,14.55
2019-05-26T03:23:17.728Z,12.65
2019-05-26T03:25:46.297Z,9.03
2019-05-26T03:28:14.750Z,9.80
2019-05-26T03:30:43.105Z,10.53
2019-05-26T03:33:11.506Z,10.93
2019-05-26T03:35:39.895Z,10.50
2019-05-26T03:38:08.300Z,7.30
2019-05-26T03:40:36.698Z,12.05
2019-05-26T03:43:05.034Z,7.70
2019-05-26T03:45:42.795Z,11.40
2019-05-26T03:48:11.262Z,8.13
2019-05-26T03:50:39.736Z,11.25
2019-05-26T03:53:08.155Z,11.30
2019-05-26T03:55:36.562Z,11.70
2019-05-26T03:58:04.971Z,10.03
2019-05-26T04:00:33.587Z,10.28
2019-05-26T04:03:02.107Z,13.55
2019-05-26T04:05:30.425Z,10.50
2019-05-26T04:08:04.068Z,9.78
2019-05-26T04:10:28.918Z,11.53
2019-05-26T04:12:57.295Z,9.28
2019-05-26T04:15:25.710Z,7.87
2019-05-26T04:17:54.067Z,9.35
2019-05-26T04:20:22.436Z,8.40
2019-05-26T04:22:50.952Z,9.88
2019-05-26T04:25:19.362Z,8.35
2019-05-26T04:27:47.725Z,9.10
2019-05-26T04:30:16.103Z,7.58
2019-05-26T04:32:44.459Z,7.95
2019-05-26T04:35:12.848Z,8.93
2019-05-26T04:37:41.278Z,8.73
2019-05-26T04:40:25.998Z,9.43
2019-05-26T04:42:39.846Z,8.43
2019-05-26T04:47:35.910Z,7.95
2019-05-26T04:50:05.242Z,9.85
2019-05-26T04:52:33.624Z,9.38
2019-05-26T04:55:02.074Z,8.68
2019-05-26T04:57:30.485Z,10.68
2019-05-26T04:59:58.857Z,8.50
2019-05-26T05:02:27.232Z,10.13
2019-05-26T05:04:55.730Z,9.50
2019-05-26T05:07:28.050Z,8.33
2019-05-26T05:09:54.170Z,9.83
2019-05-26T05:12:22.582Z,10.80
2019-05-26T05:14:51.003Z,9.43
2019-05-26T05:17:19.634Z,8.28
2019-05-26T05:19:48.026Z,9.00
2019-05-26T05:22:16.405Z,8.33
2019-05-26T05:24:44.858Z,10.45
2019-05-26T05:27:13.189Z,10.75
2019-05-26T05:29:41.578Z,9.80
2019-05-26T05:32:10.030Z,10.55
2019-05-26T05:34:38.460Z,10.53
2019-05-26T05:37:06.852Z,9.35
2019-05-26T05:39:35.286Z,9.88
2019-05-26T05:42:03.749Z,9.05
2019-05-26T05:44:32.126Z,13.75
2019-05-26T05:47:00.494Z,11.28
2019-05-26T05:49:28.836Z,11.95
2019-05-26T05:51:57.279Z,13.75
2019-05-26T05:54:25.731Z,11.48
2019-05-26T05:56:55.709Z,12.95
2019-05-26T05:59:24.262Z,12.93
2019-05-26T06:01:52.702Z,15.95
2019-05-26T06:04:21.063Z,16.70
2019-05-26T06:06:49.429Z,16.73
2019-05-26T06:09:17.821Z,16.85
2019-05-26T06:11:46.199Z,14.53
2019-05-26T06:14:14.643Z,16.27
2019-05-26T06:16:42.109Z,16.95
2019-05-26T06:19:10.484Z,14.38
2019-05-26T06:21:39.071Z,15.65
2019-05-26T06:24:07.465Z,17.55
2019-05-26T06:26:35.994Z,15.08
2019-05-26T06:29:04.401Z,14.80
2019-05-26T06:31:32.950Z,16.65
2019-05-26T06:34:01.375Z,17.77
2019-05-26T06:36:30.737Z,17.15
2019-05-26T06:38:59.183Z,13.50
2019-05-26T06:41:33.538Z,18.75
2019-05-26T06:43:57.602Z,15.20
2019-05-26T06:46:26.059Z,19.15
2019-05-26T06:48:54.433Z,15.63
2019-05-26T06:51:22.827Z,18.98
2019-05-26T06:54:03.529Z,15.72
2019-05-26T06:56:31.885Z,17.02
2019-05-26T06:59:02.852Z,19.62
2019-05-26T07:01:43.186Z,17.60
2019-05-26T07:04:11.559Z,15.30
2019-05-26T07:06:39.972Z,20.43
2019-05-26T07:09:08.394Z,22.65
2019-05-26T07:11:53.966Z,17.17
2019-05-26T07:14:06.778Z,19.27
2019-05-26T07:16:38.340Z,17.00
2019-05-26T07:19:05.266Z,16.57
2019-05-26T07:21:33.705Z,16.02
2019-05-26T07:24:02.145Z,18.85
2019-05-26T07:26:30.948Z,21.37
2019-05-26T07:28:59.317Z,21.87
2019-05-26T07:31:27.788Z,21.62
2019-05-26T07:33:56.120Z,20.88
2019-05-26T07:36:24.525Z,21.68
2019-05-26T07:38:52.936Z,21.85
2019-05-26T07:41:21.386Z,23.87
2019-05-26T07:43:49.741Z,24.32
2019-05-26T07:46:18.119Z,27.85
2019-05-26T07:48:45.807Z,24.12
2019-05-26T07:51:14.207Z,24.02
2019-05-26T07:53:42.610Z,28.32
2019-05-26T07:56:11.009Z,31.70
2019-05-26T07:58:39.545Z,29.63
2019-05-26T08:01:07.909Z,29.02
2019-05-26T08:03:36.245Z,28.57
2019-05-26T08:06:04.627Z,30.43
2019-05-26T08:08:33.082Z,30.60
2019-05-26T08:11:01.471Z,30.05
2019-05-26T08:13:29.863Z,30.95
2019-05-26T08:15:58.276Z,28.07
2019-05-26T08:18:26.610Z,29.55
2019-05-26T08:20:54.989Z,26.73
2019-05-26T08:23:23.409Z,26.85
2019-05-26T08:25:51.792Z,26.52
2019-05-26T08:28:20.210Z,30.20
2019-05-26T08:30:48.595Z,27.20
2019-05-26T08:33:16.951Z,26.00
2019-05-26T08:35:45.292Z,24.40
2019-05-26T08:38:13.779Z,28.02
2019-05-26T08:40:42.201Z,25.40
2019-05-26T08:43:10.639Z,24.25
2019-05-26T08:45:39.122Z,25.45
2019-05-26T08:48:07.568Z,27.25
2019-05-26T08:50:35.931Z,27.90
2019-05-26T08:53:04.342Z,27.80
2019-05-26T08:55:32.708Z,23.40
2019-05-26T08:58:01.113Z,23.05
2019-05-26T09:00:29.623Z,19.30
2019-05-26T09:02:57.964Z,20.17
2019-05-26T09:05:26.375Z,18.67
2019-05-26T09:07:54.765Z,17.80
2019-05-26T09:10:23.683Z,18.35
2019-05-26T09:13:00.690Z,19.30
2019-05-26T09:15:22.122Z,17.65
2019-05-26T09:17:50.521Z,16.10
2019-05-26T09:20:18.915Z,16.35
2019-05-26T09:22:47.604Z,14.70
2019-05-26T09:25:15.340Z,15.05
2019-05-26T09:27:43.609Z,16.80
2019-05-26T09:32:39.486Z,12.43
2019-05-26T09:35:07.891Z,15.80
2019-05-26T09:37:37.275Z,14.23
2019-05-26T09:40:09.599Z,15.25
2019-05-26T09:42:38.001Z,14.18
2019-05-26T09:45:08.329Z,13.72
2019-05-26T09:47:36.982Z,13.93
2019-05-26T09:50:06.311Z,15.35
2019-05-26T09:52:34.789Z,13.35
2019-05-26T09:55:03.869Z,14.95
2019-05-26T09:57:31.576Z,13.70
2019-05-26T09:59:59.998Z,14.00
2019-05-26T10:02:28.450Z,13.72
2019-05-26T10:04:56.850Z,12.20
2019-05-26T10:09:52.710Z,12.60
2019-05-26T10:12:21.134Z,11.78
2019-05-26T10:14:49.523Z,12.47
2019-05-26T10:17:17.945Z,10.72
2019-05-26T10:19:46.347Z,12.45
2019-05-26T10:22:14.838Z,13.18
2019-05-26T10:24:43.378Z,14.20
2019-05-26T10:27:11.775Z,13.38
2019-05-26T10:29:40.182Z,11.15
2019-05-26T10:32:08.563Z,11.78
2019-05-26T10:37:04.550Z,14.03
2019-05-26T10:39:32.949Z,14.78
2019-05-26T10:42:01.308Z,14.00
2019-05-26T10:44:29.742Z,14.98
2019-05-26T10:46:58.106Z,17.98
2019-05-26T10:49:26.634Z,17.32
2019-05-26T10:51:55.034Z,15.65
2019-05-26T10:54:23.543Z,18.25
2019-05-26T10:56:51.890Z,15.72
2019-05-26T10:59:20.289Z,19.15
2019-05-26T11:01:48.776Z,16.82
2019-05-26T11:04:17.151Z,14.70
2019-05-26T11:06:45.586Z,17.67
2019-05-26T11:09:13.931Z,15.13
2019-05-26T11:11:42.366Z,16.02
2019-05-26T11:14:11.194Z,17.45
2019-05-26T11:16:39.610Z,17.05
2019-05-26T11:19:07.910Z,14.83
2019-05-26T11:21:36.314Z,16.62
2019-05-26T11:24:04.774Z,15.45
2019-05-26T11:26:33.226Z,16.60
2019-05-26T11:29:01.631Z,16.87
2019-05-26T11:31:30.033Z,16.35
2019-05-26T11:33:58.414Z,17.48
2019-05-26T11:36:26.788Z,16.35
2019-05-26T11:38:55.157Z,15.78
2019-05-26T11:41:23.571Z,16.05
2019-05-26T11:43:52.011Z,17.37
2019-05-26T11:46:20.364Z,14.93
2019-05-26T11:48:48.795Z,14.60
2019-05-26T11:51:17.184Z,16.32
2019-05-26T11:53:45.552Z,15.08
2019-05-26T11:56:14.002Z,16.80
2019-05-26T11:58:42.420Z,13.53
2019-05-26T12:01:10.840Z,18.00
2019-05-26T12:03:39.296Z,16.17
2019-05-26T12:06:07.694Z,13.62
2019-05-26T12:08:36.056Z,17.32
2019-05-26T12:11:04.466Z,18.32
2019-05-26T12:13:34.647Z,16.62
2019-05-26T12:16:02.898Z,15.63
2019-05-26T12:18:31.411Z,14.25
2019-05-26T12:20:59.879Z,16.80
2019-05-26T12:23:27.353Z,15.28
2019-05-26T12:25:55.898Z,14.85
2019-05-26T12:28:24.306Z,18.37
2019-05-26T12:30:52.675Z,16.75
2019-05-26T12:38:16.093Z,17.17
2019-05-26T12:40:44.392Z,14.93
2019-05-26T12:43:12.905Z,19.77
2019-05-26T12:45:41.318Z,16.87
2019-05-26T12:48:09.833Z,15.55
2019-05-26T12:50:38.213Z,16.97
2019-05-26T12:53:06.610Z,18.90
2019-05-26T12:55:35.033Z,17.90
2019-05-26T12:58:03.429Z,18.50
2019-05-26T13:00:47.354Z,18.12
2019-05-26T13:03:02.064Z,20.08
2019-05-26T13:05:30.518Z,18.85
2019-05-26T13:07:59.017Z,18.95
2019-05-26T13:10:27.368Z,19.30
2019-05-26T13:12:55.719Z,20.08
2019-05-26T13:15:24.385Z,20.08
2019-05-26T13:17:52.799Z,20.02
2019-05-26T13:20:21.196Z,19.12
2019-05-26T13:22:49.644Z,18.35
2019-05-26T13:25:19.815Z,18.02
2019-05-26T13:27:48.190Z,19.05
2019-05-26T13:30:24.022Z,17.40
2019-05-26T13:32:52.519Z,18.55
2019-05-26T13:35:20.914Z,15.88
2019-05-26T13:37:49.315Z,15.95
2019-05-26T13:40:17.780Z,17.65
2019-05-26T13:42:46.140Z,18.25
2019-05-26T13:45:22.458Z,17.15
2019-05-26T13:47:44.867Z,16.73
2019-05-26T13:50:13.263Z,16.48
2019-05-26T13:52:40.991Z,15.08
2019-05-26T13:55:11.803Z,17.77
2019-05-26T13:57:40.153Z,15.30
2019-05-26T14:00:10.806Z,17.27
2019-05-26T14:02:39.311Z,16.87
2019-05-26T14:05:07.981Z,16.73
2019-05-26T14:07:36.429Z,15.72
2019-05-26T14:10:05.587Z,17.75
2019-05-26T14:12:33.969Z,15.85
2019-05-26T14:15:02.408Z,18.57
2019-05-26T14:17:30.813Z,15.58
2019-05-26T14:20:20.286Z,16.07
2019-05-26T14:22:48.713Z,14.53
2019-05-26T14:25:18.214Z,15.28
2019-05-26T14:27:46.619Z,15.08
2019-05-26T14:30:15.090Z,17.77
2019-05-26T14:32:43.680Z,17.25
2019-05-26T14:35:11.977Z,16.80
2019-05-26T14:37:40.366Z,17.62
2019-05-26T14:40:08.740Z,16.40
2019-05-26T14:42:37.277Z,14.23
2019-05-26T14:45:06.455Z,16.30
2019-05-26T14:47:34.844Z,19.05
2019-05-26T14:50:05.137Z,17.10
2019-05-26T14:52:33.577Z,16.20
2019-05-26T14:55:02.026Z,16.45
2019-05-26T14:57:31.135Z,17.70
2019-05-26T14:59:59.521Z,17.45
2019-05-26T15:02:27.877Z,17.20
2019-05-26T15:04:56.224Z,17.40
2019-05-26T15:07:24.573Z,16.57
2019-05-26T15:09:53.047Z,16.52
2019-05-26T15:12:21.449Z,14.07
2019-05-26T15:14:49.853Z,13.43
2019-05-26T15:17:18.194Z,16.57
2019-05-26T15:19:46.656Z,15.32
2019-05-26T15:22:15.065Z,12.05
2019-05-26T15:24:43.460Z,14.65
2019-05-26T15:27:11.873Z,12.75
2019-05-26T15:29:40.299Z,15.68
2019-05-26T15:32:08.733Z,15.50
2019-05-26T15:34:37.136Z,16.75
2019-05-26T15:37:05.570Z,18.40
2019-05-26T15:39:33.975Z,17.90
2019-05-26T15:42:02.379Z,16.80
2019-05-26T15:44:30.807Z,15.32
2019-05-26T15:46:59.202Z,13.85
2019-05-26T15:49:27.614Z,16.40
2019-05-26T15:51:55.335Z,13.70
2019-05-26T15:54:23.802Z,14.95
2019-05-26T15:56:52.245Z,14.95
2019-05-26T15:59:20.638Z,15.10
2019-05-26T16:01:48.969Z,14.05
2019-05-26T16:04:17.373Z,16.27
2019-05-26T16:06:45.745Z,14.40
2019-05-26T16:09:15.186Z,15.65
2019-05-26T16:11:43.810Z,15.48
2019-05-26T16:14:12.366Z,18.10
2019-05-26T16:16:41.968Z,16.87
2019-05-26T16:19:10.535Z,16.50
2019-05-26T16:21:38.937Z,16.65
2019-05-26T16:24:07.394Z,14.87
2019-05-26T16:26:35.805Z,16.95
2019-05-26T16:29:04.896Z,17.40
2019-05-26T16:31:33.293Z,17.90
2019-05-26T16:34:01.714Z,16.90
2019-05-26T16:36:30.162Z,18.23
2019-05-26T16:38:58.571Z,16.48
2019-05-26T16:41:27.028Z,16.10
2019-05-26T16:43:55.435Z,16.35
2019-05-26T16:46:23.833Z,16.57
2019-05-26T16:48:54.474Z,18.77
2019-05-26T16:51:22.282Z,18.02
2019-05-26T16:53:50.648Z,17.57
2019-05-26T16:56:18.996Z,16.87
2019-05-26T16:58:47.409Z,17.75
2019-05-26T17:01:15.818Z,17.70
2019-05-26T17:03:44.259Z,16.07
2019-05-26T17:06:12.685Z,13.95
2019-05-26T17:08:41.077Z,16.12
2019-05-26T17:11:12.715Z,13.85
2019-05-26T17:13:41.066Z,14.00
2019-05-26T17:16:09.583Z,13.70
2019-05-26T17:18:38.039Z,13.75
2019-05-26T17:21:06.484Z,13.18
2019-05-26T17:23:34.999Z,14.75
2019-05-26T17:26:03.430Z,15.38
2019-05-26T17:28:32.052Z,15.03
2019-05-26T17:31:00.766Z,18.23
2019-05-26T17:33:29.128Z,15.75
2019-05-26T17:35:57.512Z,14.18
2019-05-26T17:38:25.941Z,12.55
2019-05-26T17:40:54.459Z,14.53
2019-05-26T17:43:22.831Z,15.45
2019-05-26T17:45:51.255Z,15.55
2019-05-26T17:48:19.616Z,12.88
2019-05-26T17:50:48.012Z,13.70
2019-05-26T17:53:16.307Z,13.55
2019-05-26T17:55:44.686Z,16.05
2019-05-26T17:58:13.114Z,13.30
2019-05-26T18:00:41.527Z,13.75
2019-05-26T18:03:09.931Z,11.63
2019-05-26T18:05:38.322Z,12.03
2019-05-26T18:08:06.714Z,12.18
2019-05-26T18:10:35.197Z,12.55
2019-05-26T18:13:03.546Z,13.15
2019-05-26T18:15:31.981Z,12.60
2019-05-26T18:18:00.477Z,12.25
2019-05-26T18:20:28.814Z,14.50
2019-05-26T18:22:57.302Z,12.10
2019-05-26T18:25:25.622Z,12.10
2019-05-26T18:27:54.109Z,11.90
2019-05-26T18:30:22.650Z,12.10
2019-05-26T18:32:51.349Z,14.10
2019-05-26T18:35:19.946Z,13.45
2019-05-26T18:37:52.197Z,13.08
2019-05-26T18:40:19.220Z,11.78
2019-05-26T18:42:47.831Z,12.15
2019-05-26T18:45:16.763Z,13.00
2019-05-26T18:48:01.421Z,13.80
2019-05-26T18:50:16.331Z,12.70
2019-05-26T18:52:45.053Z,11.28
2019-05-26T18:55:13.689Z,13.43
2019-05-26T18:57:42.312Z,12.13
2019-05-26T19:00:11.628Z,13.43
2019-05-26T19:02:40.261Z,14.30
2019-05-26T19:05:09.318Z,15.38
2019-05-26T19:07:38.192Z,14.95
2019-05-26T19:10:08.150Z,14.63
2019-05-26T19:12:56.349Z,14.28
2019-05-26T19:15:24.968Z,14.07
2019-05-26T19:17:53.508Z,12.37
2019-05-26T19:20:22.490Z,14.25
2019-05-26T19:22:53.445Z,12.25
2019-05-26T19:25:21.971Z,11.50
2019-05-26T19:27:50.679Z,10.78
2019-05-26T19:30:19.188Z,10.68
2019-05-26T19:32:47.686Z,11.30
2019-05-26T19:35:16.215Z,11.38
2019-05-26T19:37:45.987Z,11.63
2019-05-26T19:40:15.369Z,11.43
2019-05-26T19:42:44.899Z,12.88
2019-05-26T19:45:14.266Z,11.20
2019-05-26T19:47:43.619Z,12.95
2019-05-26T19:50:12.695Z,12.85
2019-05-26T19:52:41.652Z,13.85
2019-05-26T19:55:10.688Z,10.82
2019-05-26T19:57:39.815Z,11.25
2019-05-26T20:00:13.519Z,11.38
2019-05-26T20:02:44.031Z,12.53
2019-05-26T20:05:12.968Z,11.10
2019-05-26T20:07:42.013Z,12.55
2019-05-26T20:10:11.014Z,11.75
2019-05-26T20:12:39.948Z,11.75
2019-05-26T20:15:09.138Z,13.53
2019-05-26T20:17:38.738Z,13.98
2019-05-26T20:20:12.169Z,12.90
2019-05-26T20:22:41.513Z,14.58
2019-05-26T20:25:11.640Z,14.60
2019-05-26T20:27:40.631Z,15.40
2019-05-26T20:30:10.136Z,15.30
2019-05-26T20:32:39.509Z,15.43
2019-05-26T20:35:09.103Z,14.68
2019-05-26T20:37:38.567Z,16.40
2019-05-26T20:40:08.191Z,16.02
2019-05-26T20:42:36.621Z,14.98
2019-05-26T20:45:07.320Z,17.30
2019-05-26T20:47:35.741Z,17.15
2019-05-26T20:50:08.359Z,15.43
2019-05-26T20:52:36.808Z,17.70
2019-05-26T20:55:07.716Z,15.90
2019-05-26T20:57:36.131Z,19.15
2019-05-26T21:00:10.032Z,20.23
2019-05-26T21:02:41.061Z,19.55
2019-05-26T21:05:22.386Z,21.33
2019-05-26T21:07:50.811Z,18.07
2019-05-26T21:10:19.259Z,19.37
2019-05-26T21:12:47.668Z,20.45
2019-05-26T21:15:16.043Z,21.10
2019-05-26T21:17:44.471Z,18.85
2019-05-26T21:20:12.834Z,21.10
2019-05-26T21:22:41.305Z,20.70
2019-05-26T21:25:09.764Z,22.67
2019-05-26T21:27:38.165Z,22.17
2019-05-26T21:30:06.972Z,25.90
2019-05-26T21:32:35.460Z,22.75
2019-05-26T21:35:05.594Z,23.12
2019-05-26T21:37:33.945Z,25.82
2019-05-26T21:40:02.436Z,21.45
2019-05-26T21:42:30.812Z,24.87
2019-05-26T21:44:59.184Z,22.65
2019-05-26T21:47:27.738Z,24.45
2019-05-26T21:49:56.150Z,27.67
2019-05-26T21:52:24.530Z,26.73
2019-05-26T21:54:53.083Z,30.15
2019-05-26T21:57:21.661Z,26.48
2019-05-26T21:59:50.030Z,27.02
2019-05-26T22:02:18.483Z,29.45
2019-05-26T22:04:46.877Z,28.07
2019-05-26T22:07:15.331Z,28.75
2019-05-26T22:09:43.749Z,31.37
2019-05-26T22:12:12.140Z,28.07
2019-05-26T22:14:40.505Z,28.85
2019-05-26T22:17:08.913Z,29.18
2019-05-26T22:19:37.384Z,30.88
2019-05-26T22:22:05.700Z,30.57
2019-05-26T22:24:34.088Z,28.77
2019-05-26T22:27:02.483Z,27.60
2019-05-26T22:29:30.848Z,30.65
2019-05-26T22:31:59.218Z,28.52
2019-05-26T22:34:27.582Z,28.95
2019-05-26T22:36:56.016Z,30.75
2019-05-26T22:39:24.414Z,28.50
2019-05-26T22:41:52.864Z,30.32
2019-05-26T22:44:21.297Z,30.80
2019-05-26T22:46:49.622Z,27.27
2019-05-26T22:49:18.014Z,28.50
2019-05-26T22:51:46.423Z,32.20
2019-05-26T22:54:14.829Z,29.70
2019-05-26T22:56:43.378Z,29.50
2019-05-26T22:59:11.756Z,28.65
2019-05-26T23:01:40.178Z,28.25
2019-05-26T23:04:08.632Z,27.48
2019-05-26T23:06:37.115Z,26.35
2019-05-26T23:09:06.383Z,24.70
2019-05-26T23:11:34.893Z,25.45
2019-05-26T23:14:03.387Z,22.75
2019-05-26T23:16:32.841Z,22.13
2019-05-26T23:19:01.209Z,24.15
2019-05-26T23:21:29.625Z,21.45
2019-05-26T23:23:58.042Z,21.23
2019-05-26T23:26:26.351Z,22.20
2019-05-26T23:28:54.863Z,21.23
2019-05-26T23:31:23.314Z,17.60
2019-05-26T23:33:51.702Z,21.35
2019-05-26T23:36:20.059Z,20.57
2019-05-26T23:38:48.474Z,19.42
2019-05-26T23:41:16.906Z,17.57
2019-05-26T23:43:45.307Z,19.02
2019-05-26T23:46:13.882Z,16.37
2019-05-26T23:48:42.262Z,18.15
2019-05-26T23:51:10.635Z,15.55
2019-05-26T23:53:39.139Z,15.13
2019-05-26T23:56:07.489Z,13.65
2019-05-26T23:58:35.813Z,14.70
